createdAt,value
2019-05-09T00:00:53.408Z,7.80
2019-05-09T00:03:23.966Z,7.80
2019-05-09T00:05:54.214Z,7.70
2019-05-09T00:08:23.197Z,7.70
2019-05-09T00:10:53.488Z,7.70
2019-05-09T00:13:23.761Z,7.70
2019-05-09T00:15:54.160Z,7.60
2019-05-09T00:18:23.368Z,7.60
2019-05-09T00:20:56.475Z,7.70
2019-05-09T00:23:25.218Z,7.60
2019-05-09T00:25:54.005Z,7.60
2019-05-09T00:28:24.343Z,7.60
2019-05-09T00:30:54.733Z,7.60
2019-05-09T00:33:34.390Z,7.50
2019-05-09T00:36:04.247Z,7.50
2019-05-09T00:38:43.839Z,7.50
2019-05-09T00:41:13.936Z,7.50
2019-05-09T00:43:44.598Z,7.50
2019-05-09T00:46:15.022Z,7.40
2019-05-09T00:48:57.508Z,7.40
2019-05-09T00:51:26.423Z,7.40
2019-05-09T00:53:55.252Z,7.40
2019-05-09T00:56:24.234Z,7.40
2019-05-09T00:58:53.728Z,7.40
2019-05-09T01:01:23.931Z,7.30
2019-05-09T01:03:53.563Z,7.30
2019-05-09T01:06:23.998Z,7.30
2019-05-09T01:08:53.741Z,7.30
2019-05-09T01:11:23.982Z,7.30
2019-05-09T01:13:54.399Z,7.30
2019-05-09T01:16:24.188Z,7.20
2019-05-09T01:18:54.413Z,7.20
2019-05-09T01:21:24.113Z,7.20
2019-05-09T01:23:53.894Z,7.20
2019-05-09T01:26:24.039Z,7.20
2019-05-09T01:28:53.967Z,7.20
2019-05-09T01:31:24.078Z,7.10
2019-05-09T01:34:13.199Z,7.20
2019-05-09T01:36:58.886Z,7.10
2019-05-09T01:39:27.717Z,7.10
2019-05-09T01:41:56.400Z,7.10
2019-05-09T01:44:25.177Z,7.00
2019-05-09T01:46:54.121Z,7.00
2019-05-09T01:49:23.362Z,7.00
2019-05-09T01:51:53.680Z,7.00
2019-05-09T01:54:23.908Z,7.00
2019-05-09T01:56:53.750Z,7.00
2019-05-09T01:59:24.306Z,6.90
2019-05-09T02:01:54.119Z,6.90
2019-05-09T02:04:24.277Z,6.80
2019-05-09T02:06:53.867Z,6.80
2019-05-09T02:09:23.419Z,6.80
2019-05-09T02:11:54.429Z,6.80
2019-05-09T02:14:24.527Z,6.80
2019-05-09T02:17:13.950Z,6.70
2019-05-09T02:19:44.442Z,6.70
2019-05-09T02:22:14.835Z,6.70
2019-05-09T02:24:44.100Z,6.70
2019-05-09T02:27:13.286Z,6.70
2019-05-09T02:29:44.005Z,6.70
2019-05-09T02:32:14.295Z,6.70
2019-05-09T02:34:44.252Z,6.60
2019-05-09T02:37:13.146Z,6.60
2019-05-09T02:39:41.910Z,6.60
2019-05-09T02:42:14.380Z,6.60
2019-05-09T02:44:41.383Z,6.60
2019-05-09T02:47:11.793Z,6.60
2019-05-09T02:49:40.459Z,6.60
2019-05-09T02:52:09.297Z,6.60
2019-05-09T02:54:39.266Z,6.50
2019-05-09T02:57:09.288Z,6.50
2019-05-09T02:59:52.152Z,6.60
2019-05-09T03:02:25.262Z,6.60
2019-05-09T03:04:54.075Z,6.60
2019-05-09T03:07:24.476Z,6.60
2019-05-09T03:09:53.228Z,6.60
2019-05-09T03:12:30.858Z,6.60
2019-05-09T03:14:52.522Z,6.70
2019-05-09T03:17:21.363Z,6.70
2019-05-09T03:19:50.119Z,6.70
2019-05-09T03:22:23.108Z,6.80
2019-05-09T03:24:51.778Z,6.80
2019-05-09T03:27:22.108Z,6.80
2019-05-09T03:29:52.504Z,6.90
2019-05-09T03:32:21.269Z,6.90
2019-05-09T03:34:50.027Z,7.00
2019-05-09T03:37:19.072Z,7.00
2019-05-09T03:39:47.945Z,7.10
2019-05-09T03:42:21.189Z,7.20
2019-05-09T03:44:47.691Z,7.20
2019-05-09T03:47:29.659Z,7.30
2019-05-09T03:50:08.551Z,7.40
2019-05-09T03:52:37.443Z,7.50
2019-05-09T03:55:10.938Z,7.60
2019-05-09T03:57:41.339Z,7.70
2019-05-09T04:00:11.354Z,7.70
2019-05-09T04:02:40.015Z,7.90
2019-05-09T04:05:08.832Z,8.00
2019-05-09T04:07:38.422Z,8.00
2019-05-09T04:10:07.833Z,8.20
2019-05-09T04:12:37.529Z,8.30
2019-05-09T04:15:08.451Z,8.50
2019-05-09T04:17:43.474Z,8.70
2019-05-09T04:20:17.477Z,8.80
2019-05-09T04:22:49.097Z,9.00
2019-05-09T04:25:20.106Z,9.10
2019-05-09T04:27:51.994Z,9.20
2019-05-09T04:30:20.831Z,9.30
2019-05-09T04:32:52.774Z,9.40
2019-05-09T04:35:23.983Z,9.50
2019-05-09T04:37:54.473Z,9.60
2019-05-09T04:40:23.312Z,9.70
2019-05-09T04:43:08.979Z,9.80
2019-05-09T04:45:28.473Z,9.90
2019-05-09T04:47:57.843Z,9.90
2019-05-09T04:50:27.997Z,10.10
2019-05-09T04:52:58.013Z,10.20
2019-05-09T04:55:29.110Z,10.30
2019-05-09T04:58:00.316Z,10.30
2019-05-09T05:00:48.061Z,10.50
2019-05-09T05:03:18.404Z,10.50
2019-05-09T05:05:48.270Z,10.60
2019-05-09T05:08:19.973Z,10.70
2019-05-09T05:10:50.259Z,10.70
2019-05-09T05:13:26.331Z,10.80
2019-05-09T05:15:50.966Z,10.90
2019-05-09T05:18:20.303Z,11.00
2019-05-09T05:20:49.126Z,11.00
2019-05-09T05:23:28.575Z,11.10
2019-05-09T05:25:57.990Z,11.20
2019-05-09T05:28:27.829Z,11.30
2019-05-09T05:30:58.174Z,11.50
2019-05-09T05:33:33.016Z,11.50
2019-05-09T05:36:03.408Z,11.60
2019-05-09T05:38:33.121Z,11.70
2019-05-09T05:41:01.096Z,11.70
2019-05-09T05:43:40.426Z,11.80
2019-05-09T05:46:11.781Z,11.90
2019-05-09T05:48:41.440Z,11.90
2019-05-09T05:51:10.258Z,12.00
2019-05-09T05:53:39.179Z,12.10
2019-05-09T05:56:09.793Z,12.10
2019-05-09T05:58:38.764Z,12.20
2019-05-09T06:01:08.220Z,12.40
2019-05-09T06:03:37.666Z,12.50
2019-05-09T06:06:08.835Z,12.60
2019-05-09T06:08:38.086Z,12.70
2019-05-09T06:11:11.773Z,12.70
2019-05-09T06:13:37.980Z,12.80
2019-05-09T06:16:08.635Z,12.90
2019-05-09T06:18:38.458Z,13.00
2019-05-09T06:21:08.820Z,13.00
2019-05-09T06:23:37.732Z,13.10
2019-05-09T06:26:09.979Z,13.20
2019-05-09T06:28:37.635Z,13.20
2019-05-09T06:31:07.558Z,13.20
2019-05-09T06:33:44.958Z,13.20
2019-05-09T06:36:08.016Z,13.30
2019-05-09T06:38:37.757Z,13.20
2019-05-09T06:41:08.501Z,13.30
2019-05-09T06:43:42.494Z,13.40
2019-05-09T06:46:12.886Z,13.40
2019-05-09T06:48:41.938Z,13.50
2019-05-09T06:51:10.610Z,13.40
2019-05-09T06:53:39.433Z,13.50
2019-05-09T06:56:08.213Z,13.60
2019-05-09T06:58:38.360Z,13.60
2019-05-09T07:01:20.789Z,13.70
2019-05-09T07:03:53.835Z,13.70
2019-05-09T07:06:28.293Z,13.80
2019-05-09T07:09:01.790Z,13.90
2019-05-09T07:11:30.486Z,13.90
2019-05-09T07:13:59.298Z,13.90
2019-05-09T07:16:28.001Z,13.90
2019-05-09T07:18:57.947Z,14.00
2019-05-09T07:21:28.685Z,14.00
2019-05-09T07:23:58.329Z,14.10
2019-05-09T07:26:33.637Z,14.10
2019-05-09T07:29:02.451Z,14.10
2019-05-09T07:31:41.194Z,14.00
2019-05-09T07:34:11.589Z,14.00
2019-05-09T07:36:40.330Z,14.10
2019-05-09T07:39:09.173Z,14.20
2019-05-09T07:41:38.404Z,14.20
2019-05-09T07:44:07.710Z,14.20
2019-05-09T07:46:38.519Z,14.10
2019-05-09T07:49:08.614Z,14.20
2019-05-09T07:51:37.586Z,14.20
2019-05-09T07:54:21.351Z,14.30
2019-05-09T07:56:37.857Z,14.30
2019-05-09T07:59:07.642Z,14.30
2019-05-09T08:01:38.486Z,14.40
2019-05-09T08:04:07.511Z,14.40
2019-05-09T08:06:37.970Z,14.30
2019-05-09T08:09:08.332Z,14.40
2019-05-09T08:11:37.755Z,14.50
2019-05-09T08:14:08.394Z,14.50
2019-05-09T08:16:37.940Z,14.50
2019-05-09T08:19:07.526Z,14.50
2019-05-09T08:21:38.282Z,14.60
2019-05-09T08:24:08.150Z,14.80
2019-05-09T08:26:39.328Z,15.00
2019-05-09T08:29:09.487Z,15.20
2019-05-09T08:31:40.052Z,15.40
2019-05-09T08:34:08.414Z,15.60
2019-05-09T08:36:38.462Z,15.70
2019-05-09T08:39:08.301Z,15.90
2019-05-09T08:41:38.489Z,16.00
2019-05-09T08:44:08.063Z,16.20
2019-05-09T08:46:37.775Z,16.30
2019-05-09T08:49:08.146Z,16.50
2019-05-09T08:52:03.040Z,16.70
2019-05-09T08:54:29.708Z,17.00
2019-05-09T08:56:58.447Z,17.20
2019-05-09T08:59:27.689Z,17.20
2019-05-09T09:02:12.157Z,17.30
2019-05-09T09:04:29.451Z,17.40
2019-05-09T09:06:57.716Z,17.70
2019-05-09T09:09:28.509Z,18.10
2019-05-09T09:11:58.361Z,18.00
2019-05-09T09:14:28.007Z,18.00
2019-05-09T09:16:57.617Z,18.10
2019-05-09T09:19:28.010Z,18.20
2019-05-09T09:22:00.256Z,18.70
2019-05-09T09:24:28.324Z,18.90
2019-05-09T09:26:57.480Z,19.10
2019-05-09T09:29:28.385Z,19.40
2019-05-09T09:31:57.628Z,19.60
2019-05-09T09:34:29.361Z,19.50
2019-05-09T09:37:04.394Z,19.60
2019-05-09T09:39:27.654Z,19.90
2019-05-09T09:41:58.651Z,20.20
2019-05-09T09:44:28.684Z,20.30
2019-05-09T09:46:58.194Z,20.60
2019-05-09T09:49:29.352Z,21.00
2019-05-09T09:51:58.173Z,21.40
2019-05-09T09:54:28.148Z,21.50
2019-05-09T09:56:58.481Z,21.50
2019-05-09T09:59:40.828Z,21.80
2019-05-09T10:02:10.459Z,21.40
2019-05-09T10:04:39.300Z,22.00
2019-05-09T10:07:08.920Z,22.20
2019-05-09T10:09:37.817Z,21.80
2019-05-09T10:12:08.873Z,21.60
2019-05-09T10:14:38.518Z,21.60
2019-05-09T10:17:25.121Z,22.00
2019-05-09T10:20:01.613Z,22.30
2019-05-09T10:22:30.396Z,22.90
2019-05-09T10:24:59.138Z,22.20
2019-05-09T10:27:28.476Z,22.20
2019-05-09T10:29:57.470Z,22.10
2019-05-09T10:32:28.653Z,23.00
2019-05-09T10:34:58.083Z,23.60
2019-05-09T10:37:27.054Z,23.80
2019-05-09T10:39:58.076Z,24.10
2019-05-09T10:42:28.660Z,23.90
2019-05-09T10:45:18.029Z,24.20
2019-05-09T10:47:48.312Z,23.90
2019-05-09T10:50:18.386Z,24.10
2019-05-09T10:52:48.160Z,24.50
2019-05-09T10:55:17.937Z,24.60
2019-05-09T10:57:52.028Z,24.20
2019-05-09T11:00:18.460Z,24.50
2019-05-09T11:02:48.373Z,24.90
2019-05-09T11:05:18.417Z,25.30
2019-05-09T11:07:49.368Z,25.20
2019-05-09T11:10:25.869Z,25.30
2019-05-09T11:12:48.214Z,25.90
2019-05-09T11:15:17.755Z,26.40
2019-05-09T11:17:47.493Z,26.70
2019-05-09T11:20:19.108Z,26.50
2019-05-09T11:22:46.951Z,26.90
2019-05-09T11:25:15.787Z,26.80
2019-05-09T11:27:44.602Z,26.80
2019-05-09T11:30:13.411Z,27.30
2019-05-09T11:32:42.167Z,27.70
2019-05-09T11:35:10.969Z,27.10
2019-05-09T11:37:39.708Z,27.20
2019-05-09T11:40:08.634Z,27.30
2019-05-09T11:42:38.165Z,27.60
2019-05-09T11:45:07.835Z,27.10
2019-05-09T11:47:45.566Z,26.70
2019-05-09T11:50:08.745Z,27.70
2019-05-09T11:52:38.404Z,27.90
2019-05-09T11:55:07.987Z,28.50
2019-05-09T11:57:38.386Z,29.20
2019-05-09T12:00:08.339Z,29.30
2019-05-09T12:02:38.464Z,29.00
2019-05-09T12:05:08.726Z,29.20
2019-05-09T12:07:38.110Z,29.40
2019-05-09T12:10:08.517Z,29.70
2019-05-09T12:12:39.051Z,30.20
2019-05-09T12:15:08.923Z,29.70
2019-05-09T12:17:53.026Z,30.10
2019-05-09T12:20:12.982Z,30.10
2019-05-09T12:22:38.840Z,29.80
2019-05-09T12:25:08.545Z,29.50
2019-05-09T12:27:37.514Z,30.50
2019-05-09T12:30:06.954Z,30.10
2019-05-09T12:32:38.337Z,30.40
2019-05-09T12:35:08.914Z,30.80
2019-05-09T12:37:37.830Z,31.10
2019-05-09T12:40:08.338Z,31.20
2019-05-09T12:42:39.153Z,31.10
2019-05-09T12:45:08.441Z,30.60
2019-05-09T12:47:39.704Z,31.60
2019-05-09T12:50:08.604Z,31.50
2019-05-09T12:52:39.254Z,32.10
2019-05-09T12:55:08.422Z,31.70
2019-05-09T12:57:38.683Z,31.60
2019-05-09T13:00:10.707Z,31.20
2019-05-09T13:02:39.466Z,31.70
2019-05-09T13:05:08.276Z,32.20
2019-05-09T13:07:40.071Z,32.70
2019-05-09T13:10:08.971Z,33.30
2019-05-09T13:12:38.789Z,32.20
2019-05-09T13:15:08.893Z,31.80
2019-05-09T13:17:39.451Z,31.80
2019-05-09T13:20:09.165Z,31.60
2019-05-09T13:22:37.842Z,32.10
2019-05-09T13:25:09.659Z,32.20
2019-05-09T13:27:39.016Z,31.70
2019-05-09T13:30:09.487Z,32.70
2019-05-09T13:32:38.284Z,31.70
2019-05-09T13:35:08.033Z,31.10
2019-05-09T13:37:38.211Z,31.60
2019-05-09T13:40:08.546Z,31.30
2019-05-09T13:42:39.531Z,31.50
2019-05-09T13:45:08.392Z,31.90
2019-05-09T13:47:38.025Z,30.90
2019-05-09T13:50:08.820Z,30.70
2019-05-09T13:52:38.388Z,31.70
2019-05-09T13:55:08.710Z,32.40
2019-05-09T13:57:37.680Z,32.40
2019-05-09T14:00:08.816Z,32.10
2019-05-09T14:02:38.396Z,32.60
2019-05-09T14:05:08.930Z,33.30
2019-05-09T14:07:38.018Z,32.90
2019-05-09T14:10:10.091Z,33.10
2019-05-09T14:12:38.746Z,33.00
2019-05-09T14:15:08.534Z,32.10
2019-05-09T14:17:49.141Z,30.80
2019-05-09T14:20:08.824Z,31.10
2019-05-09T14:22:38.558Z,30.60
2019-05-09T14:25:11.185Z,31.20
2019-05-09T14:27:37.924Z,31.30
2019-05-09T14:30:08.132Z,31.90
2019-05-09T14:32:39.785Z,32.40
2019-05-09T14:35:08.595Z,32.30
2019-05-09T14:37:38.866Z,32.10
2019-05-09T14:40:10.322Z,32.80
2019-05-09T14:42:40.473Z,32.80
2019-05-09T14:45:09.141Z,32.90
2019-05-09T14:47:41.884Z,33.20
2019-05-09T14:50:10.058Z,33.90
2019-05-09T14:52:38.857Z,34.70
2019-05-09T14:55:08.363Z,35.10
2019-05-09T14:57:38.349Z,34.70
2019-05-09T15:00:08.982Z,34.80
2019-05-09T15:02:38.899Z,35.00
2019-05-09T15:05:09.539Z,33.40
2019-05-09T15:07:39.073Z,32.40
2019-05-09T15:10:08.720Z,31.40
2019-05-09T15:12:39.058Z,30.50
2019-05-09T15:15:08.203Z,29.90
2019-05-09T15:17:37.268Z,28.90
2019-05-09T15:20:08.817Z,28.10
2019-05-09T15:22:38.626Z,27.50
2019-05-09T15:25:08.928Z,26.90
2019-05-09T15:27:38.523Z,26.20
2019-05-09T15:30:09.317Z,25.70
2019-05-09T15:32:38.008Z,25.10
2019-05-09T15:35:08.963Z,24.80
2019-05-09T15:37:38.823Z,24.50
2019-05-09T15:40:08.813Z,24.50
2019-05-09T15:42:38.869Z,24.10
2019-05-09T15:45:08.860Z,23.60
2019-05-09T15:47:38.088Z,23.50
2019-05-09T15:50:16.488Z,23.20
2019-05-09T15:52:38.395Z,22.90
2019-05-09T15:55:09.588Z,22.80
2019-05-09T15:57:37.923Z,22.80
2019-05-09T16:00:08.494Z,22.50
2019-05-09T16:02:39.084Z,22.70
2019-05-09T16:05:10.557Z,22.70
2019-05-09T16:07:38.226Z,22.50
2019-05-09T16:10:08.581Z,22.80
2019-05-09T16:12:38.377Z,22.60
2019-05-09T16:15:07.878Z,22.50
2019-05-09T16:17:39.328Z,22.60
2019-05-09T16:20:08.481Z,22.30
2019-05-09T16:22:39.173Z,24.90
2019-05-09T16:25:08.493Z,26.50
2019-05-09T16:27:37.896Z,28.00
2019-05-09T16:30:08.650Z,27.80
2019-05-09T16:32:37.831Z,26.30
2019-05-09T16:35:07.934Z,25.50
2019-05-09T16:37:57.257Z,25.30
2019-05-09T16:40:08.549Z,25.30
2019-05-09T16:42:38.271Z,24.50
2019-05-09T16:45:08.133Z,24.10
2019-05-09T16:47:38.515Z,25.30
2019-05-09T16:50:11.508Z,26.00
2019-05-09T16:52:40.317Z,24.60
2019-05-09T16:55:11.063Z,25.00
2019-05-09T16:57:42.126Z,24.30
2019-05-09T17:00:18.195Z,24.40
2019-05-09T17:02:48.115Z,23.90
2019-05-09T17:05:17.441Z,23.30
2019-05-09T17:07:47.651Z,22.90
2019-05-09T17:10:18.421Z,22.50
2019-05-09T17:12:49.311Z,22.20
2019-05-09T17:15:22.987Z,21.90
2019-05-09T17:17:51.792Z,21.80
2019-05-09T17:20:29.074Z,21.70
2019-05-09T17:23:14.460Z,21.50
2019-05-09T17:25:41.213Z,21.30
2019-05-09T17:28:10.033Z,21.10
2019-05-09T17:30:39.484Z,20.90
2019-05-09T17:33:09.445Z,21.00
2019-05-09T17:35:40.262Z,20.80
2019-05-09T17:38:10.613Z,20.60
2019-05-09T17:40:43.818Z,20.40
2019-05-09T17:43:13.632Z,20.30
2019-05-09T17:45:47.626Z,20.30
2019-05-09T17:48:18.294Z,20.30
2019-05-09T17:50:47.872Z,20.20
2019-05-09T17:53:20.094Z,20.20
2019-05-09T17:55:48.943Z,20.00
2019-05-09T17:58:27.139Z,19.90
2019-05-09T18:00:48.615Z,19.90
2019-05-09T18:03:18.177Z,19.80
2019-05-09T18:05:48.524Z,19.60
2019-05-09T18:08:18.721Z,19.60
2019-05-09T18:10:50.044Z,19.50
2019-05-09T18:13:23.972Z,19.50
2019-05-09T18:15:51.758Z,19.30
2019-05-09T18:18:20.578Z,19.30
2019-05-09T18:20:50.355Z,19.20
2019-05-09T18:23:19.286Z,19.20
2019-05-09T18:25:49.391Z,19.20
2019-05-09T18:28:18.670Z,19.20
2019-05-09T18:30:47.934Z,19.20
2019-05-09T18:33:20.228Z,19.10
2019-05-09T18:35:51.913Z,19.00
2019-05-09T18:38:28.112Z,19.00
2019-05-09T18:40:57.958Z,18.90
2019-05-09T18:43:27.537Z,18.80
2019-05-09T18:45:57.708Z,18.80
2019-05-09T18:48:27.798Z,18.70
2019-05-09T18:50:56.906Z,18.70
2019-05-09T18:53:25.717Z,18.60
2019-05-09T18:55:54.614Z,18.50
2019-05-09T18:58:23.338Z,18.50
2019-05-09T19:00:52.344Z,18.50
2019-05-09T19:03:21.186Z,18.40
2019-05-09T19:05:50.089Z,18.40
2019-05-09T19:08:18.992Z,18.40
2019-05-09T19:10:51.977Z,18.40
2019-05-09T19:13:23.089Z,18.30
2019-05-09T19:15:58.500Z,18.30
2019-05-09T19:18:40.770Z,18.20
2019-05-09T19:21:11.043Z,18.10
2019-05-09T19:23:41.362Z,18.10
2019-05-09T19:26:11.747Z,18.10
2019-05-09T19:28:40.496Z,18.10
2019-05-09T19:31:09.264Z,18.00
2019-05-09T19:33:39.205Z,17.90
2019-05-09T19:36:08.062Z,17.90
2019-05-09T19:38:36.745Z,17.90
2019-05-09T19:41:05.587Z,17.80
2019-05-09T19:43:34.339Z,17.80
2019-05-09T19:46:03.168Z,17.70
2019-05-09T19:48:31.894Z,17.80
2019-05-09T19:51:00.643Z,17.70
2019-05-09T19:53:29.528Z,17.70
2019-05-09T19:55:58.448Z,17.60
2019-05-09T19:58:27.199Z,17.60
2019-05-09T20:00:55.975Z,17.60
2019-05-09T20:03:24.669Z,17.50
2019-05-09T20:05:53.408Z,17.50
2019-05-09T20:08:22.581Z,17.40
2019-05-09T20:11:05.388Z,17.30
2019-05-09T20:13:41.852Z,17.30
2019-05-09T20:16:10.535Z,17.30
2019-05-09T20:18:39.364Z,17.20
2019-05-09T20:21:11.154Z,17.20
2019-05-09T20:23:39.937Z,17.10
2019-05-09T20:26:08.778Z,16.90
2019-05-09T20:28:37.541Z,16.90
2019-05-09T20:31:06.310Z,16.90
2019-05-09T20:33:35.074Z,16.90
2019-05-09T20:36:03.857Z,16.80
2019-05-09T20:38:32.836Z,16.80
2019-05-09T20:41:01.770Z,16.80
2019-05-09T20:43:30.714Z,16.80
2019-05-09T20:45:59.658Z,16.80
2019-05-09T20:48:28.778Z,16.70
2019-05-09T20:50:57.862Z,16.60
2019-05-09T20:53:26.915Z,16.60
2019-05-09T20:55:55.774Z,16.60
2019-05-09T20:58:24.809Z,16.60
2019-05-09T21:00:53.737Z,16.50
2019-05-09T21:03:22.746Z,16.50
2019-05-09T21:05:52.100Z,16.40
2019-05-09T21:08:21.045Z,16.30
2019-05-09T21:10:50.059Z,16.20
2019-05-09T21:13:19.052Z,16.10
2019-05-09T21:15:47.933Z,16.00
2019-05-09T21:18:16.896Z,15.90
2019-05-09T21:20:45.790Z,15.80
2019-05-09T21:23:24.228Z,15.70
2019-05-09T21:25:45.474Z,15.70
2019-05-09T21:28:14.342Z,15.60
2019-05-09T21:30:44.091Z,15.50
2019-05-09T21:33:12.963Z,15.50
2019-05-09T21:35:41.792Z,15.40
2019-05-09T21:38:10.557Z,15.30
2019-05-09T21:40:39.301Z,15.30
2019-05-09T21:43:08.088Z,15.20
2019-05-09T21:45:36.904Z,15.20
2019-05-09T21:48:05.734Z,15.20
2019-05-09T21:50:34.544Z,15.10
2019-05-09T21:53:03.287Z,15.10
2019-05-09T21:55:32.127Z,15.00
2019-05-09T21:58:00.869Z,15.00
2019-05-09T22:00:34.551Z,14.90
2019-05-09T22:03:03.634Z,14.80
2019-05-09T22:05:32.514Z,14.80
2019-05-09T22:08:01.322Z,14.80
2019-05-09T22:10:30.128Z,14.80
2019-05-09T22:12:58.879Z,14.70
2019-05-09T22:15:27.716Z,14.70
2019-05-09T22:17:56.441Z,14.60
2019-05-09T22:20:25.200Z,14.60
2019-05-09T22:22:53.947Z,14.60
2019-05-09T22:25:22.773Z,14.50
2019-05-09T22:27:51.528Z,14.50
2019-05-09T22:30:21.864Z,14.50
2019-05-09T22:32:50.555Z,14.40
2019-05-09T22:35:19.366Z,14.40
2019-05-09T22:37:48.183Z,14.30
2019-05-09T22:40:17.112Z,14.30
2019-05-09T22:42:45.946Z,14.30
2019-05-09T22:45:15.271Z,14.20
2019-05-09T22:47:44.077Z,14.20
2019-05-09T22:50:12.906Z,14.10
2019-05-09T22:52:41.748Z,14.10
2019-05-09T22:55:11.426Z,14.00
2019-05-09T22:57:40.243Z,14.00
2019-05-09T23:00:09.418Z,14.00
2019-05-09T23:02:38.221Z,13.90
2019-05-09T23:05:07.487Z,13.90
2019-05-09T23:07:36.318Z,13.90
2019-05-09T23:10:06.384Z,13.90
2019-05-09T23:12:35.201Z,13.80
2019-05-09T23:15:04.414Z,13.80
2019-05-09T23:17:33.281Z,13.80
2019-05-09T23:20:04.603Z,13.80
2019-05-09T23:22:33.414Z,13.80
2019-05-09T23:25:02.242Z,13.80
2019-05-09T23:27:30.983Z,13.80
2019-05-09T23:29:59.654Z,13.70
2019-05-09T23:32:32.975Z,13.70
2019-05-09T23:35:01.659Z,13.70
2019-05-09T23:37:30.419Z,13.70
2019-05-09T23:39:59.107Z,13.70
2019-05-09T23:42:27.925Z,13.70
2019-05-09T23:44:56.678Z,13.70
2019-05-09T23:47:25.432Z,13.70
2019-05-09T23:49:54.203Z,13.60
2019-05-09T23:52:23.032Z,13.60
2019-05-09T23:55:09.740Z,13.60
2019-05-09T23:57:56.111Z,13.60
